sensor_id;sensor_type;location;lat;lon;timestamp;P1;durP1;ratioP1;P2;durP2;ratioP2
18881;SDS011;9573;50.948;11.600;2022-07-03T00:00:38;8.40;;;3.93;;
18881;SDS011;9573;50.948;11.600;2022-07-03T00:03:06;11.23;;;3.97;;
18881;SDS011;9573;50.948;11.600;2022-07-03T00:05:34;9.93;;;3.83;;
18881;SDS011;9573;50.948;11.600;2022-07-03T00:08:02;11.23;;;4.30;;
18881;SDS011;9573;50.948;11.600;2022-07-03T00:10:30;9.33;;;4.10;;
18881;SDS011;9573;50.948;11.600;2022-07-03T00:12:57;7.27;;;3.90;;
18881;SDS011;9573;50.948;11.600;2022-07-03T00:15:24;8.37;;;3.90;;
18881;SDS011;9573;50.948;11.600;2022-07-03T00:17:51;7.40;;;4.10;;
18881;SDS011;9573;50.948;11.600;2022-07-03T00:20:20;6.93;;;3.93;;
18881;SDS011;9573;50.948;11.600;2022-07-03T00:22:48;8.77;;;4.03;;
18881;SDS011;9573;50.948;11.600;2022-07-03T00:25:16;10.87;;;3.90;;
18881;SDS011;9573;50.948;11.600;2022-07-03T00:27:45;7.50;;;3.70;;
18881;SDS011;9573;50.948;11.600;2022-07-03T00:30:15;8.90;;;4.07;;
18881;SDS011;9573;50.948;11.600;2022-07-03T00:32:43;8.50;;;4.00;;
18881;SDS011;9573;50.948;11.600;2022-07-03T00:35:14;8.00;;;3.80;;
18881;SDS011;9573;50.948;11.600;2022-07-03T00:37:44;8.23;;;4.20;;
18881;SDS011;9573;50.948;11.600;2022-07-03T00:40:12;9.60;;;4.47;;
18881;SDS011;9573;50.948;11.600;2022-07-03T00:42:39;6.97;;;4.10;;
18881;SDS011;9573;50.948;11.600;2022-07-03T00:45:07;10.07;;;4.17;;
18881;SDS011;9573;50.948;11.600;2022-07-03T00:47:35;8.67;;;4.33;;
18881;SDS011;9573;50.948;11.600;2022-07-03T00:50:05;8.83;;;4.20;;
18881;SDS011;9573;50.948;11.600;2022-07-03T00:52:35;7.17;;;4.10;;
18881;SDS011;9573;50.948;11.600;2022-07-03T00:55:07;11.43;;;4.47;;
18881;SDS011;9573;50.948;11.600;2022-07-03T00:57:42;10.00;;;4.40;;
18881;SDS011;9573;50.948;11.600;2022-07-03T01:00:12;9.57;;;4.40;;
18881;SDS011;9573;50.948;11.600;2022-07-03T01:02:45;11.87;;;4.33;;
18881;SDS011;9573;50.948;11.600;2022-07-03T01:05:26;8.33;;;4.20;;
18881;SDS011;9573;50.948;11.600;2022-07-03T01:08:02;8.93;;;4.30;;
18881;SDS011;9573;50.948;11.600;2022-07-03T01:10:43;11.50;;;4.60;;
18881;SDS011;9573;50.948;11.600;2022-07-03T01:13:30;8.80;;;4.20;;
18881;SDS011;9573;50.948;11.600;2022-07-03T01:16:07;9.50;;;4.40;;
18881;SDS011;9573;50.948;11.600;2022-07-03T01:18:44;9.90;;;4.40;;
18881;SDS011;9573;50.948;11.600;2022-07-03T01:21:16;12.70;;;4.63;;
18881;SDS011;9573;50.948;11.600;2022-07-03T01:23:58;10.10;;;4.40;;
18881;SDS011;9573;50.948;11.600;2022-07-03T01:26:50;9.17;;;4.40;;
18881;SDS011;9573;50.948;11.600;2022-07-03T01:29:25;9.90;;;4.57;;
18881;SDS011;9573;50.948;11.600;2022-07-03T01:32:00;15.20;;;4.83;;
18881;SDS011;9573;50.948;11.600;2022-07-03T01:34:30;9.50;;;4.30;;
18881;SDS011;9573;50.948;11.600;2022-07-03T01:37:01;12.43;;;4.70;;
18881;SDS011;9573;50.948;11.600;2022-07-03T01:39:30;10.07;;;4.70;;
18881;SDS011;9573;50.948;11.600;2022-07-03T01:42:01;8.37;;;4.50;;
18881;SDS011;9573;50.948;11.600;2022-07-03T01:44:29;9.50;;;4.47;;
18881;SDS011;9573;50.948;11.600;2022-07-03T01:46:58;13.33;;;4.90;;
18881;SDS011;9573;50.948;11.600;2022-07-03T01:49:26;8.17;;;4.37;;
18881;SDS011;9573;50.948;11.600;2022-07-03T01:51:56;8.13;;;4.07;;
18881;SDS011;9573;50.948;11.600;2022-07-03T01:54:25;11.83;;;4.53;;
18881;SDS011;9573;50.948;11.600;2022-07-03T01:56:52;10.47;;;4.53;;
18881;SDS011;9573;50.948;11.600;2022-07-03T01:59:21;10.17;;;4.80;;
18881;SDS011;9573;50.948;11.600;2022-07-03T02:01:51;7.93;;;3.93;;
18881;SDS011;9573;50.948;11.600;2022-07-03T02:04:28;9.90;;;4.60;;
18881;SDS011;9573;50.948;11.600;2022-07-03T02:07:15;10.47;;;4.60;;
18881;SDS011;9573;50.948;11.600;2022-07-03T02:09:48;8.97;;;4.20;;
18881;SDS011;9573;50.948;11.600;2022-07-03T02:12:23;6.93;;;4.20;;
18881;SDS011;9573;50.948;11.600;2022-07-03T02:15:04;7.47;;;4.23;;
18881;SDS011;9573;50.948;11.600;2022-07-03T02:17:35;7.57;;;4.40;;
18881;SDS011;9573;50.948;11.600;2022-07-03T02:20:05;9.27;;;4.43;;
18881;SDS011;9573;50.948;11.600;2022-07-03T02:22:35;10.10;;;4.40;;
18881;SDS011;9573;50.948;11.600;2022-07-03T02:25:07;8.20;;;4.40;;
18881;SDS011;9573;50.948;11.600;2022-07-03T02:27:41;12.57;;;4.87;;
18881;SDS011;9573;50.948;11.600;2022-07-03T02:30:12;11.10;;;4.63;;
18881;SDS011;9573;50.948;11.600;2022-07-03T02:32:42;9.67;;;4.43;;
18881;SDS011;9573;50.948;11.600;2022-07-03T02:35:13;9.47;;;4.63;;
18881;SDS011;9573;50.948;11.600;2022-07-03T02:37:45;9.47;;;4.80;;
18881;SDS011;9573;50.948;11.600;2022-07-03T02:40:20;10.67;;;4.83;;
18881;SDS011;9573;50.948;11.600;2022-07-03T02:43:01;10.00;;;4.90;;
18881;SDS011;9573;50.948;11.600;2022-07-03T02:45:42;9.37;;;5.00;;
18881;SDS011;9573;50.948;11.600;2022-07-03T02:48:16;11.40;;;5.00;;
18881;SDS011;9573;50.948;11.600;2022-07-03T02:50:54;11.70;;;4.70;;
18881;SDS011;9573;50.948;11.600;2022-07-03T02:53:33;8.73;;;4.63;;
18881;SDS011;9573;50.948;11.600;2022-07-03T02:56:05;12.07;;;5.00;;
18881;SDS011;9573;50.948;11.600;2022-07-03T02:58:46;11.37;;;4.70;;
18881;SDS011;9573;50.948;11.600;2022-07-03T03:01:34;10.00;;;4.63;;
18881;SDS011;9573;50.948;11.600;2022-07-03T03:04:12;14.63;;;5.53;;
18881;SDS011;9573;50.948;11.600;2022-07-03T03:06:49;15.40;;;4.70;;
18881;SDS011;9573;50.948;11.600;2022-07-03T03:09:24;8.63;;;4.70;;
18881;SDS011;9573;50.948;11.600;2022-07-03T03:11:56;14.63;;;5.20;;
18881;SDS011;9573;50.948;11.600;2022-07-03T03:14:29;12.70;;;4.90;;
18881;SDS011;9573;50.948;11.600;2022-07-03T03:17:06;12.73;;;5.00;;
18881;SDS011;9573;50.948;11.600;2022-07-03T03:19:36;9.83;;;4.80;;
18881;SDS011;9573;50.948;11.600;2022-07-03T03:22:09;11.50;;;4.80;;
18881;SDS011;9573;50.948;11.600;2022-07-03T03:24:44;8.00;;;4.60;;
18881;SDS011;9573;50.948;11.600;2022-07-03T03:27:12;12.53;;;4.80;;
18881;SDS011;9573;50.948;11.600;2022-07-03T03:29:40;9.60;;;4.80;;
18881;SDS011;9573;50.948;11.600;2022-07-03T03:32:09;7.97;;;4.40;;
18881;SDS011;9573;50.948;11.600;2022-07-03T03:34:37;9.33;;;4.80;;
18881;SDS011;9573;50.948;11.600;2022-07-03T03:37:07;8.47;;;4.40;;
18881;SDS011;9573;50.948;11.600;2022-07-03T03:39:34;10.07;;;4.40;;
18881;SDS011;9573;50.948;11.600;2022-07-03T03:42:02;9.13;;;4.23;;
18881;SDS011;9573;50.948;11.600;2022-07-03T03:44:31;8.20;;;4.00;;
18881;SDS011;9573;50.948;11.600;2022-07-03T03:46:58;8.77;;;4.13;;
18881;SDS011;9573;50.948;11.600;2022-07-03T03:49:26;9.00;;;4.90;;
18881;SDS011;9573;50.948;11.600;2022-07-03T03:51:54;13.27;;;4.13;;
18881;SDS011;9573;50.948;11.600;2022-07-03T03:54:22;8.37;;;3.90;;
18881;SDS011;9573;50.948;11.600;2022-07-03T03:56:50;7.67;;;3.90;;
18881;SDS011;9573;50.948;11.600;2022-07-03T03:59:17;7.17;;;3.97;;
18881;SDS011;9573;50.948;11.600;2022-07-03T04:01:44;10.43;;;3.90;;
18881;SDS011;9573;50.948;11.600;2022-07-03T04:04:13;6.53;;;3.70;;
18881;SDS011;9573;50.948;11.600;2022-07-03T04:06:43;5.17;;;3.77;;
18881;SDS011;9573;50.948;11.600;2022-07-03T04:09:11;11.30;;;4.13;;
18881;SDS011;9573;50.948;11.600;2022-07-03T04:11:38;7.77;;;3.97;;
18881;SDS011;9573;50.948;11.600;2022-07-03T04:14:05;6.20;;;3.67;;
18881;SDS011;9573;50.948;11.600;2022-07-03T04:16:33;8.63;;;3.80;;
18881;SDS011;9573;50.948;11.600;2022-07-03T04:19:00;8.47;;;3.50;;
18881;SDS011;9573;50.948;11.600;2022-07-03T04:21:27;8.83;;;3.63;;
18881;SDS011;9573;50.948;11.600;2022-07-03T04:23:56;7.10;;;3.77;;
18881;SDS011;9573;50.948;11.600;2022-07-03T04:26:23;6.93;;;3.57;;
18881;SDS011;9573;50.948;11.600;2022-07-03T04:28:50;7.30;;;3.63;;
18881;SDS011;9573;50.948;11.600;2022-07-03T04:31:17;8.37;;;3.60;;
18881;SDS011;9573;50.948;11.600;2022-07-03T04:33:44;7.87;;;3.60;;
18881;SDS011;9573;50.948;11.600;2022-07-03T04:36:11;8.40;;;3.63;;
18881;SDS011;9573;50.948;11.600;2022-07-03T04:38:39;4.50;;;3.10;;
18881;SDS011;9573;50.948;11.600;2022-07-03T04:41:07;7.10;;;3.37;;
18881;SDS011;9573;50.948;11.600;2022-07-03T04:43:34;6.50;;;3.30;;
18881;SDS011;9573;50.948;11.600;2022-07-03T04:46:02;8.27;;;3.37;;
18881;SDS011;9573;50.948;11.600;2022-07-03T04:48:30;9.07;;;3.60;;
18881;SDS011;9573;50.948;11.600;2022-07-03T04:50:57;5.53;;;3.47;;
18881;SDS011;9573;50.948;11.600;2022-07-03T04:53:25;7.80;;;3.37;;
18881;SDS011;9573;50.948;11.600;2022-07-03T04:55:52;8.30;;;3.17;;
18881;SDS011;9573;50.948;11.600;2022-07-03T04:58:20;6.63;;;3.00;;
18881;SDS011;9573;50.948;11.600;2022-07-03T05:00:48;7.23;;;3.00;;
18881;SDS011;9573;50.948;11.600;2022-07-03T05:03:15;6.93;;;3.40;;
18881;SDS011;9573;50.948;11.600;2022-07-03T05:05:42;6.80;;;3.27;;
18881;SDS011;9573;50.948;11.600;2022-07-03T05:08:09;3.97;;;3.00;;
18881;SDS011;9573;50.948;11.600;2022-07-03T05:10:37;3.90;;;2.80;;
18881;SDS011;9573;50.948;11.600;2022-07-03T05:13:04;5.38;;;2.85;;
18881;SDS011;9573;50.948;11.600;2022-07-03T05:15:32;4.18;;;3.10;;
18881;SDS011;9573;50.948;11.600;2022-07-03T05:17:59;7.18;;;2.80;;
18881;SDS011;9573;50.948;11.600;2022-07-03T05:20:27;6.70;;;2.80;;
18881;SDS011;9573;50.948;11.600;2022-07-03T05:22:54;6.40;;;2.70;;
18881;SDS011;9573;50.948;11.600;2022-07-03T05:25:22;5.43;;;3.25;;
18881;SDS011;9573;50.948;11.600;2022-07-03T05:27:50;8.93;;;3.25;;
18881;SDS011;9573;50.948;11.600;2022-07-03T05:30:18;5.07;;;2.70;;
18881;SDS011;9573;50.948;11.600;2022-07-03T05:32:47;5.68;;;2.83;;
18881;SDS011;9573;50.948;11.600;2022-07-03T05:35:14;4.35;;;2.70;;
18881;SDS011;9573;50.948;11.600;2022-07-03T05:37:41;5.32;;;2.70;;
18881;SDS011;9573;50.948;11.600;2022-07-03T05:40:09;5.80;;;2.60;;
18881;SDS011;9573;50.948;11.600;2022-07-03T05:42:37;7.75;;;2.70;;
18881;SDS011;9573;50.948;11.600;2022-07-03T05:45:05;8.52;;;2.90;;
18881;SDS011;9573;50.948;11.600;2022-07-03T05:47:34;4.20;;;2.53;;
18881;SDS011;9573;50.948;11.600;2022-07-03T05:50:03;5.15;;;2.78;;
18881;SDS011;9573;50.948;11.600;2022-07-03T05:52:31;6.32;;;2.97;;
18881;SDS011;9573;50.948;11.600;2022-07-03T05:54:58;3.67;;;2.55;;
18881;SDS011;9573;50.948;11.600;2022-07-03T05:57:25;8.77;;;2.78;;
18881;SDS011;9573;50.948;11.600;2022-07-03T05:59:52;3.47;;;2.30;;
18881;SDS011;9573;50.948;11.600;2022-07-03T06:02:19;5.78;;;2.65;;
18881;SDS011;9573;50.948;11.600;2022-07-03T06:04:46;3.60;;;2.50;;
18881;SDS011;9573;50.948;11.600;2022-07-03T06:07:15;6.78;;;2.60;;
18881;SDS011;9573;50.948;11.600;2022-07-03T06:09:42;7.75;;;2.58;;
18881;SDS011;9573;50.948;11.600;2022-07-03T06:12:10;5.13;;;2.60;;
18881;SDS011;9573;50.948;11.600;2022-07-03T06:14:37;5.68;;;2.70;;
18881;SDS011;9573;50.948;11.600;2022-07-03T06:17:04;6.10;;;2.60;;
18881;SDS011;9573;50.948;11.600;2022-07-03T06:19:32;4.15;;;2.65;;
18881;SDS011;9573;50.948;11.600;2022-07-03T06:21:59;4.80;;;2.47;;
18881;SDS011;9573;50.948;11.600;2022-07-03T06:24:28;6.05;;;2.55;;
18881;SDS011;9573;50.948;11.600;2022-07-03T06:26:55;7.05;;;2.75;;
18881;SDS011;9573;50.948;11.600;2022-07-03T06:29:22;5.18;;;2.58;;
18881;SDS011;9573;50.948;11.600;2022-07-03T06:31:50;4.70;;;2.30;;
18881;SDS011;9573;50.948;11.600;2022-07-03T06:34:18;6.53;;;2.42;;
18881;SDS011;9573;50.948;11.600;2022-07-03T06:36:45;4.25;;;2.30;;
18881;SDS011;9573;50.948;11.600;2022-07-03T06:39:12;5.22;;;2.50;;
18881;SDS011;9573;50.948;11.600;2022-07-03T06:41:40;4.90;;;2.60;;
18881;SDS011;9573;50.948;11.600;2022-07-03T06:44:08;5.60;;;2.30;;
18881;SDS011;9573;50.948;11.600;2022-07-03T06:46:35;4.25;;;2.42;;
18881;SDS011;9573;50.948;11.600;2022-07-03T06:49:02;3.78;;;2.25;;
18881;SDS011;9573;50.948;11.600;2022-07-03T06:51:29;3.55;;;2.45;;
18881;SDS011;9573;50.948;11.600;2022-07-03T06:53:58;5.20;;;2.35;;
18881;SDS011;9573;50.948;11.600;2022-07-03T06:56:26;5.68;;;2.45;;
18881;SDS011;9573;50.948;11.600;2022-07-03T06:58:57;5.60;;;2.40;;
18881;SDS011;9573;50.948;11.600;2022-07-03T07:01:25;4.30;;;2.53;;
18881;SDS011;9573;50.948;11.600;2022-07-03T07:03:52;3.15;;;2.55;;
18881;SDS011;9573;50.948;11.600;2022-07-03T07:06:19;7.15;;;2.60;;
18881;SDS011;9573;50.948;11.600;2022-07-03T07:08:46;5.63;;;2.40;;
18881;SDS011;9573;50.948;11.600;2022-07-03T07:11:14;4.70;;;2.33;;
18881;SDS011;9573;50.948;11.600;2022-07-03T07:13:41;4.57;;;2.40;;
18881;SDS011;9573;50.948;11.600;2022-07-03T07:16:10;3.05;;;2.33;;
18881;SDS011;9573;50.948;11.600;2022-07-03T07:18:39;3.53;;;2.08;;
18881;SDS011;9573;50.948;11.600;2022-07-03T07:21:07;2.63;;;2.33;;
18881;SDS011;9573;50.948;11.600;2022-07-03T07:23:35;2.67;;;2.40;;
18881;SDS011;9573;50.948;11.600;2022-07-03T07:26:02;2.97;;;2.38;;
18881;SDS011;9573;50.948;11.600;2022-07-03T07:28:30;4.07;;;2.40;;
18881;SDS011;9573;50.948;11.600;2022-07-03T07:30:58;7.05;;;2.38;;
18881;SDS011;9573;50.948;11.600;2022-07-03T07:33:27;3.95;;;2.65;;
18881;SDS011;9573;50.948;11.600;2022-07-03T07:35:54;4.55;;;2.22;;
18881;SDS011;9573;50.948;11.600;2022-07-03T07:38:21;3.40;;;2.60;;
18881;SDS011;9573;50.948;11.600;2022-07-03T07:40:48;4.30;;;2.58;;
18881;SDS011;9573;50.948;11.600;2022-07-03T07:43:15;3.55;;;2.50;;
18881;SDS011;9573;50.948;11.600;2022-07-03T07:45:42;2.45;;;2.25;;
18881;SDS011;9573;50.948;11.600;2022-07-03T07:48:10;5.05;;;2.50;;
18881;SDS011;9573;50.948;11.600;2022-07-03T07:50:38;5.47;;;2.50;;
18881;SDS011;9573;50.948;11.600;2022-07-03T07:53:06;4.68;;;2.40;;
18881;SDS011;9573;50.948;11.600;2022-07-03T07:55:33;4.88;;;2.40;;
18881;SDS011;9573;50.948;11.600;2022-07-03T07:58:00;5.60;;;2.50;;
18881;SDS011;9573;50.948;11.600;2022-07-03T08:00:27;4.53;;;2.40;;
18881;SDS011;9573;50.948;11.600;2022-07-03T08:02:54;5.88;;;2.17;;
18881;SDS011;9573;50.948;11.600;2022-07-03T08:05:40;6.13;;;2.60;;
18881;SDS011;9573;50.948;11.600;2022-07-03T08:08:08;7.88;;;2.22;;
18881;SDS011;9573;50.948;11.600;2022-07-03T08:10:37;11.35;;;2.63;;
18881;SDS011;9573;50.948;11.600;2022-07-03T08:13:06;2.95;;;2.22;;
18881;SDS011;9573;50.948;11.600;2022-07-03T08:15:35;6.07;;;2.30;;
18881;SDS011;9573;50.948;11.600;2022-07-03T08:18:03;5.88;;;2.47;;
18881;SDS011;9573;50.948;11.600;2022-07-03T08:20:31;3.67;;;2.40;;
18881;SDS011;9573;50.948;11.600;2022-07-03T08:23:04;2.90;;;2.30;;
18881;SDS011;9573;50.948;11.600;2022-07-03T08:25:32;3.72;;;2.17;;
18881;SDS011;9573;50.948;11.600;2022-07-03T08:27:59;2.80;;;2.30;;
18881;SDS011;9573;50.948;11.600;2022-07-03T08:30:27;3.30;;;2.20;;
18881;SDS011;9573;50.948;11.600;2022-07-03T08:32:54;5.90;;;2.38;;
18881;SDS011;9573;50.948;11.600;2022-07-03T08:35:24;2.33;;;2.00;;
18881;SDS011;9573;50.948;11.600;2022-07-03T08:37:52;4.68;;;2.20;;
18881;SDS011;9573;50.948;11.600;2022-07-03T08:40:22;2.80;;;2.10;;
18881;SDS011;9573;50.948;11.600;2022-07-03T08:42:50;4.97;;;2.05;;
18881;SDS011;9573;50.948;11.600;2022-07-03T08:45:20;6.15;;;2.08;;
18881;SDS011;9573;50.948;11.600;2022-07-03T08:47:49;3.03;;;1.90;;
18881;SDS011;9573;50.948;11.600;2022-07-03T08:50:19;5.82;;;2.30;;
18881;SDS011;9573;50.948;11.600;2022-07-03T08:52:47;2.50;;;2.20;;
18881;SDS011;9573;50.948;11.600;2022-07-03T08:55:15;5.10;;;2.20;;
18881;SDS011;9573;50.948;11.600;2022-07-03T08:57:46;3.40;;;2.10;;
18881;SDS011;9573;50.948;11.600;2022-07-03T09:00:15;3.42;;;2.08;;
18881;SDS011;9573;50.948;11.600;2022-07-03T09:02:45;4.65;;;2.00;;
18881;SDS011;9573;50.948;11.600;2022-07-03T09:05:14;2.35;;;2.10;;
18881;SDS011;9573;50.948;11.600;2022-07-03T09:07:43;5.65;;;2.13;;
18881;SDS011;9573;50.948;11.600;2022-07-03T09:10:12;3.42;;;2.00;;
18881;SDS011;9573;50.948;11.600;2022-07-03T09:12:41;2.80;;;2.10;;
18881;SDS011;9573;50.948;11.600;2022-07-03T09:15:11;3.33;;;2.08;;
18881;SDS011;9573;50.948;11.600;2022-07-03T09:17:38;2.15;;;1.95;;
18881;SDS011;9573;50.948;11.600;2022-07-03T09:20:06;2.30;;;2.10;;
18881;SDS011;9573;50.948;11.600;2022-07-03T09:22:35;4.13;;;2.00;;
18881;SDS011;9573;50.948;11.600;2022-07-03T09:25:03;2.88;;;1.73;;
18881;SDS011;9573;50.948;11.600;2022-07-03T09:27:33;3.13;;;1.85;;
18881;SDS011;9573;50.948;11.600;2022-07-03T09:30:01;6.05;;;1.90;;
18881;SDS011;9573;50.948;11.600;2022-07-03T09:32:32;3.03;;;2.00;;
18881;SDS011;9573;50.948;11.600;2022-07-03T09:35:15;4.95;;;2.13;;
18881;SDS011;9573;50.948;11.600;2022-07-03T09:37:48;2.53;;;2.00;;
18881;SDS011;9573;50.948;11.600;2022-07-03T09:40:17;3.35;;;1.85;;
18881;SDS011;9573;50.948;11.600;2022-07-03T09:43:01;2.75;;;2.05;;
18881;SDS011;9573;50.948;11.600;2022-07-03T09:45:49;3.10;;;1.92;;
18881;SDS011;9573;50.948;11.600;2022-07-03T09:48:26;2.97;;;1.80;;
18881;SDS011;9573;50.948;11.600;2022-07-03T09:51:07;2.42;;;1.70;;
18881;SDS011;9573;50.948;11.600;2022-07-03T09:53:47;1.90;;;1.70;;
18881;SDS011;9573;50.948;11.600;2022-07-03T09:56:21;4.15;;;1.80;;
18881;SDS011;9573;50.948;11.600;2022-07-03T09:59:03;2.15;;;1.80;;
18881;SDS011;9573;50.948;11.600;2022-07-03T10:01:36;2.33;;;1.83;;
18881;SDS011;9573;50.948;11.600;2022-07-03T10:04:12;2.33;;;1.88;;
18881;SDS011;9573;50.948;11.600;2022-07-03T10:06:48;2.53;;;1.85;;
18881;SDS011;9573;50.948;11.600;2022-07-03T10:09:18;4.07;;;1.88;;
18881;SDS011;9573;50.948;11.600;2022-07-03T10:11:49;2.42;;;1.80;;
18881;SDS011;9573;50.948;11.600;2022-07-03T10:14:18;3.50;;;1.95;;
18881;SDS011;9573;50.948;11.600;2022-07-03T10:16:47;1.90;;;1.77;;
18881;SDS011;9573;50.948;11.600;2022-07-03T10:19:17;1.70;;;1.60;;
18881;SDS011;9573;50.948;11.600;2022-07-03T10:21:48;2.25;;;1.90;;
18881;SDS011;9573;50.948;11.600;2022-07-03T10:24:20;3.28;;;1.90;;
18881;SDS011;9573;50.948;11.600;2022-07-03T10:26:49;3.05;;;1.42;;
18881;SDS011;9573;50.948;11.600;2022-07-03T10:29:17;2.30;;;1.48;;
18881;SDS011;9573;50.948;11.600;2022-07-03T10:31:47;2.45;;;1.80;;
18881;SDS011;9573;50.948;11.600;2022-07-03T10:34:17;2.60;;;1.67;;
18881;SDS011;9573;50.948;11.600;2022-07-03T10:36:47;3.95;;;1.65;;
18881;SDS011;9573;50.948;11.600;2022-07-03T10:42:08;3.50;;;2.47;;
18881;SDS011;9573;50.948;11.600;2022-07-03T10:45:03;7.43;;;2.60;;
18881;SDS011;9573;50.948;11.600;2022-07-03T10:47:36;2.75;;;1.70;;
18881;SDS011;9573;50.948;11.600;2022-07-03T10:50:12;4.10;;;1.80;;
18881;SDS011;9573;50.948;11.600;2022-07-03T10:52:40;6.05;;;2.13;;
18881;SDS011;9573;50.948;11.600;2022-07-03T10:55:08;2.95;;;1.45;;
18881;SDS011;9573;50.948;11.600;2022-07-03T10:57:38;1.75;;;1.63;;
18881;SDS011;9573;50.948;11.600;2022-07-03T11:00:15;1.95;;;1.70;;
18881;SDS011;9573;50.948;11.600;2022-07-03T11:02:48;6.32;;;1.73;;
18881;SDS011;9573;50.948;11.600;2022-07-03T11:05:22;3.40;;;1.60;;
18881;SDS011;9573;50.948;11.600;2022-07-03T11:08:07;3.40;;;1.73;;
18881;SDS011;9573;50.948;11.600;2022-07-03T11:10:39;2.53;;;1.55;;
18881;SDS011;9573;50.948;11.600;2022-07-03T11:13:09;2.20;;;1.42;;
18881;SDS011;9573;50.948;11.600;2022-07-03T11:15:47;2.28;;;1.60;;
18881;SDS011;9573;50.948;11.600;2022-07-03T11:18:28;3.78;;;1.70;;
18881;SDS011;9573;50.948;11.600;2022-07-03T11:27:13;2.30;;;1.60;;
18881;SDS011;9573;50.948;11.600;2022-07-03T11:29:49;2.95;;;1.60;;
18881;SDS011;9573;50.948;11.600;2022-07-03T11:38:22;2.75;;;1.50;;
18881;SDS011;9573;50.948;11.600;2022-07-03T11:40:53;2.50;;;1.30;;
18881;SDS011;9573;50.948;11.600;2022-07-03T11:43:22;1.63;;;1.40;;
18881;SDS011;9573;50.948;11.600;2022-07-03T11:45:50;1.45;;;1.35;;
18881;SDS011;9573;50.948;11.600;2022-07-03T11:48:18;4.60;;;1.70;;
18881;SDS011;9573;50.948;11.600;2022-07-03T11:50:47;1.95;;;1.60;;
18881;SDS011;9573;50.948;11.600;2022-07-03T11:53:19;1.50;;;1.40;;
18881;SDS011;9573;50.948;11.600;2022-07-03T11:55:53;2.17;;;1.55;;
18881;SDS011;9573;50.948;11.600;2022-07-03T11:58:23;3.00;;;1.30;;
18881;SDS011;9573;50.948;11.600;2022-07-03T12:00:52;3.50;;;1.70;;
18881;SDS011;9573;50.948;11.600;2022-07-03T12:03:20;4.97;;;1.50;;
18881;SDS011;9573;50.948;11.600;2022-07-03T12:05:54;1.20;;;1.10;;
18881;SDS011;9573;50.948;11.600;2022-07-03T12:08:28;3.97;;;1.80;;
18881;SDS011;9573;50.948;11.600;2022-07-03T12:10:58;2.35;;;1.50;;
18881;SDS011;9573;50.948;11.600;2022-07-03T12:13:30;1.67;;;1.48;;
18881;SDS011;9573;50.948;11.600;2022-07-03T12:16:05;3.65;;;1.58;;
18881;SDS011;9573;50.948;11.600;2022-07-03T12:18:45;2.95;;;1.60;;
18881;SDS011;9573;50.948;11.600;2022-07-03T12:21:15;6.40;;;1.90;;
18881;SDS011;9573;50.948;11.600;2022-07-03T12:23:46;4.40;;;1.38;;
18881;SDS011;9573;50.948;11.600;2022-07-03T12:26:25;2.75;;;1.40;;
18881;SDS011;9573;50.948;11.600;2022-07-03T12:28:58;4.25;;;1.38;;
18881;SDS011;9573;50.948;11.600;2022-07-03T12:31:27;2.15;;;1.70;;
18881;SDS011;9573;50.948;11.600;2022-07-03T12:33:55;3.08;;;1.33;;
18881;SDS011;9573;50.948;11.600;2022-07-03T12:36:24;2.58;;;1.52;;
18881;SDS011;9573;50.948;11.600;2022-07-03T12:38:53;4.38;;;1.60;;
18881;SDS011;9573;50.948;11.600;2022-07-03T12:41:22;1.65;;;1.55;;
18881;SDS011;9573;50.948;11.600;2022-07-03T12:43:51;2.38;;;1.52;;
18881;SDS011;9573;50.948;11.600;2022-07-03T12:46:20;1.50;;;1.40;;
18881;SDS011;9573;50.948;11.600;2022-07-03T12:48:50;1.95;;;1.50;;
18881;SDS011;9573;50.948;11.600;2022-07-03T12:54:13;4.10;;;1.63;;
18881;SDS011;9573;50.948;11.600;2022-07-03T12:56:41;2.22;;;1.50;;
18881;SDS011;9573;50.948;11.600;2022-07-03T12:59:24;2.30;;;1.20;;
18881;SDS011;9573;50.948;11.600;2022-07-03T13:02:01;3.10;;;1.60;;
18881;SDS011;9573;50.948;11.600;2022-07-03T13:04:30;2.25;;;1.70;;
18881;SDS011;9573;50.948;11.600;2022-07-03T13:06:59;3.70;;;1.85;;
18881;SDS011;9573;50.948;11.600;2022-07-03T13:09:28;2.55;;;1.77;;
18881;SDS011;9573;50.948;11.600;2022-07-03T13:11:55;3.67;;;1.70;;
18881;SDS011;9573;50.948;11.600;2022-07-03T13:14:23;4.18;;;1.60;;
18881;SDS011;9573;50.948;11.600;2022-07-03T13:16:51;3.08;;;1.50;;
18881;SDS011;9573;50.948;11.600;2022-07-03T13:19:20;1.70;;;1.35;;
18881;SDS011;9573;50.948;11.600;2022-07-03T13:21:50;2.65;;;1.70;;
18881;SDS011;9573;50.948;11.600;2022-07-03T13:24:19;3.25;;;1.77;;
18881;SDS011;9573;50.948;11.600;2022-07-03T13:26:48;3.00;;;1.83;;
18881;SDS011;9573;50.948;11.600;2022-07-03T13:29:17;3.05;;;1.80;;
18881;SDS011;9573;50.948;11.600;2022-07-03T13:31:44;1.90;;;1.70;;
18881;SDS011;9573;50.948;11.600;2022-07-03T13:34:12;2.75;;;1.60;;
18881;SDS011;9573;50.948;11.600;2022-07-03T13:36:39;3.30;;;1.55;;
18881;SDS011;9573;50.948;11.600;2022-07-03T13:39:06;3.90;;;1.70;;
18881;SDS011;9573;50.948;11.600;2022-07-03T13:41:34;5.32;;;1.90;;
18881;SDS011;9573;50.948;11.600;2022-07-03T13:44:03;2.63;;;1.80;;
18881;SDS011;9573;50.948;11.600;2022-07-03T13:46:30;1.75;;;1.55;;
18881;SDS011;9573;50.948;11.600;2022-07-03T13:48:57;1.70;;;1.60;;
18881;SDS011;9573;50.948;11.600;2022-07-03T13:51:25;1.90;;;1.70;;
18881;SDS011;9573;50.948;11.600;2022-07-03T13:53:52;3.92;;;1.90;;
18881;SDS011;9573;50.948;11.600;2022-07-03T13:56:19;1.70;;;1.60;;
18881;SDS011;9573;50.948;11.600;2022-07-03T13:58:46;2.50;;;1.50;;
18881;SDS011;9573;50.948;11.600;2022-07-03T14:01:15;2.45;;;1.73;;
18881;SDS011;9573;50.948;11.600;2022-07-03T14:03:42;2.78;;;1.50;;
18881;SDS011;9573;50.948;11.600;2022-07-03T14:06:09;4.50;;;1.95;;
18881;SDS011;9573;50.948;11.600;2022-07-03T14:08:37;3.83;;;1.98;;
18881;SDS011;9573;50.948;11.600;2022-07-03T14:11:04;1.67;;;1.58;;
18881;SDS011;9573;50.948;11.600;2022-07-03T14:13:31;3.85;;;1.80;;
18881;SDS011;9573;50.948;11.600;2022-07-03T14:15:59;3.65;;;1.65;;
18881;SDS011;9573;50.948;11.600;2022-07-03T14:18:27;4.85;;;1.92;;
18881;SDS011;9573;50.948;11.600;2022-07-03T14:20:55;2.58;;;1.80;;
18881;SDS011;9573;50.948;11.600;2022-07-03T14:23:22;4.05;;;1.80;;
18881;SDS011;9573;50.948;11.600;2022-07-03T14:25:51;3.97;;;1.77;;
18881;SDS011;9573;50.948;11.600;2022-07-03T14:28:18;2.60;;;1.80;;
18881;SDS011;9573;50.948;11.600;2022-07-03T14:31:02;2.83;;;1.88;;
18881;SDS011;9573;50.948;11.600;2022-07-03T14:33:57;2.13;;;1.65;;
18881;SDS011;9573;50.948;11.600;2022-07-03T14:36:24;3.30;;;1.73;;
18881;SDS011;9573;50.948;11.600;2022-07-03T14:38:51;4.20;;;1.80;;
18881;SDS011;9573;50.948;11.600;2022-07-03T14:41:18;5.43;;;1.90;;
18881;SDS011;9573;50.948;11.600;2022-07-03T14:43:45;2.55;;;1.60;;
18881;SDS011;9573;50.948;11.600;2022-07-03T14:46:13;4.70;;;1.60;;
18881;SDS011;9573;50.948;11.600;2022-07-03T14:48:40;2.83;;;1.70;;
18881;SDS011;9573;50.948;11.600;2022-07-03T14:51:08;2.75;;;1.70;;
18881;SDS011;9573;50.948;11.600;2022-07-03T14:53:35;1.77;;;1.67;;
18881;SDS011;9573;50.948;11.600;2022-07-03T14:56:03;1.50;;;1.40;;
18881;SDS011;9573;50.948;11.600;2022-07-03T14:58:31;1.70;;;1.58;;
18881;SDS011;9573;50.948;11.600;2022-07-03T15:00:58;3.20;;;1.90;;
18881;SDS011;9573;50.948;11.600;2022-07-03T15:03:30;2.03;;;1.80;;
18881;SDS011;9573;50.948;11.600;2022-07-03T15:05:59;2.78;;;1.88;;
18881;SDS011;9573;50.948;11.600;2022-07-03T15:11:27;6.07;;;1.77;;
18881;SDS011;9573;50.948;11.600;2022-07-03T15:14:20;1.77;;;1.67;;
18881;SDS011;9573;50.948;11.600;2022-07-03T15:16:52;1.67;;;1.58;;
18881;SDS011;9573;50.948;11.600;2022-07-03T15:19:20;3.05;;;1.70;;
18881;SDS011;9573;50.948;11.600;2022-07-03T15:21:49;1.60;;;1.48;;
18881;SDS011;9573;50.948;11.600;2022-07-03T15:24:20;2.63;;;2.05;;